sensor_id;sensor_type;location;lat;lon;timestamp;P1;durP1;ratioP1;P2;durP2;ratioP2
58581;SDS011;44361;51.476;5.700;2022-08-05T00:00:03;11.40;;;8.50;;
58581;SDS011;44361;51.476;5.700;2022-08-05T00:02:29;11.95;;;7.65;;
58581;SDS011;44361;51.476;5.700;2022-08-05T00:04:55;13.55;;;8.23;;
58581;SDS011;44361;51.476;5.700;2022-08-05T00:07:21;11.23;;;7.95;;
58581;SDS011;44361;51.476;5.700;2022-08-05T00:09:47;13.55;;;8.50;;
58581;SDS011;44361;51.476;5.700;2022-08-05T00:12:12;13.52;;;8.43;;
58581;SDS011;44361;51.476;5.700;2022-08-05T00:14:38;11.85;;;8.85;;
58581;SDS011;44361;51.476;5.700;2022-08-05T00:17:04;13.38;;;9.40;;
58581;SDS011;44361;51.476;5.700;2022-08-05T00:19:29;15.13;;;8.95;;
58581;SDS011;44361;51.476;5.700;2022-08-05T00:21:55;15.65;;;9.30;;
58581;SDS011;44361;51.476;5.700;2022-08-05T00:24:21;16.38;;;8.65;;
58581;SDS011;44361;51.476;5.700;2022-08-05T00:26:46;13.85;;;8.95;;
58581;SDS011;44361;51.476;5.700;2022-08-05T00:29:12;12.43;;;8.90;;
58581;SDS011;44361;51.476;5.700;2022-08-05T00:31:38;14.68;;;8.88;;
58581;SDS011;44361;51.476;5.700;2022-08-05T00:34:03;13.20;;;8.85;;
58581;SDS011;44361;51.476;5.700;2022-08-05T00:36:29;16.92;;;9.05;;
58581;SDS011;44361;51.476;5.700;2022-08-05T00:38:55;18.95;;;8.75;;
58581;SDS011;44361;51.476;5.700;2022-08-05T00:41:31;15.90;;;9.50;;
58581;SDS011;44361;51.476;5.700;2022-08-05T00:43:58;19.17;;;9.15;;
58581;SDS011;44361;51.476;5.700;2022-08-05T00:46:24;13.85;;;9.13;;
58581;SDS011;44361;51.476;5.700;2022-08-05T00:48:50;13.82;;;9.15;;
58581;SDS011;44361;51.476;5.700;2022-08-05T00:51:17;13.90;;;9.13;;
58581;SDS011;44361;51.476;5.700;2022-08-05T00:53:44;13.02;;;9.02;;
58581;SDS011;44361;51.476;5.700;2022-08-05T00:56:09;16.45;;;9.27;;
58581;SDS011;44361;51.476;5.700;2022-08-05T00:58:35;16.95;;;9.57;;
58581;SDS011;44361;51.476;5.700;2022-08-05T01:01:01;19.02;;;9.32;;
58581;SDS011;44361;51.476;5.700;2022-08-05T01:03:26;17.67;;;9.38;;
58581;SDS011;44361;51.476;5.700;2022-08-05T01:05:54;15.10;;;10.48;;
58581;SDS011;44361;51.476;5.700;2022-08-05T01:08:19;14.20;;;9.20;;
58581;SDS011;44361;51.476;5.700;2022-08-05T01:10:53;21.60;;;10.10;;
58581;SDS011;44361;51.476;5.700;2022-08-05T01:16:19;15.57;;;9.32;;
58581;SDS011;44361;51.476;5.700;2022-08-05T01:18:49;15.80;;;10.60;;
58581;SDS011;44361;51.476;5.700;2022-08-05T01:29:51;14.73;;;10.50;;
58581;SDS011;44361;51.476;5.700;2022-08-05T01:32:21;20.08;;;10.63;;
58581;SDS011;44361;51.476;5.700;2022-08-05T01:35:02;19.45;;;10.18;;
58581;SDS011;44361;51.476;5.700;2022-08-05T01:37:38;17.75;;;10.82;;
58581;SDS011;44361;51.476;5.700;2022-08-05T01:40:05;18.20;;;10.55;;
58581;SDS011;44361;51.476;5.700;2022-08-05T01:42:32;14.27;;;9.30;;
58581;SDS011;44361;51.476;5.700;2022-08-05T01:45:00;16.25;;;10.77;;
58581;SDS011;44361;51.476;5.700;2022-08-05T01:47:27;15.45;;;9.93;;
58581;SDS011;44361;51.476;5.700;2022-08-05T01:49:56;20.00;;;11.10;;
58581;SDS011;44361;51.476;5.700;2022-08-05T01:52:24;13.65;;;9.60;;
58581;SDS011;44361;51.476;5.700;2022-08-05T01:54:53;16.73;;;10.30;;
58581;SDS011;44361;51.476;5.700;2022-08-05T01:57:25;17.67;;;10.77;;
58581;SDS011;44361;51.476;5.700;2022-08-05T01:59:57;16.63;;;9.38;;
58581;SDS011;44361;51.476;5.700;2022-08-05T02:02:24;16.92;;;9.63;;
58581;SDS011;44361;51.476;5.700;2022-08-05T02:04:53;15.73;;;10.35;;
58581;SDS011;44361;51.476;5.700;2022-08-05T02:07:25;14.13;;;10.63;;
58581;SDS011;44361;51.476;5.700;2022-08-05T02:09:51;15.93;;;10.50;;
58581;SDS011;44361;51.476;5.700;2022-08-05T02:12:18;21.75;;;11.57;;
58581;SDS011;44361;51.476;5.700;2022-08-05T02:15:03;18.95;;;11.68;;
58581;SDS011;44361;51.476;5.700;2022-08-05T02:17:35;18.77;;;11.43;;
58581;SDS011;44361;51.476;5.700;2022-08-05T02:20:06;23.73;;;12.23;;
58581;SDS011;44361;51.476;5.700;2022-08-05T02:22:35;19.42;;;11.43;;
58581;SDS011;44361;51.476;5.700;2022-08-05T02:25:12;16.13;;;10.10;;
58581;SDS011;44361;51.476;5.700;2022-08-05T02:27:41;20.30;;;11.60;;
58581;SDS011;44361;51.476;5.700;2022-08-05T02:30:12;19.17;;;11.82;;
58581;SDS011;44361;51.476;5.700;2022-08-05T02:32:42;22.10;;;11.65;;
58581;SDS011;44361;51.476;5.700;2022-08-05T02:35:14;17.50;;;11.15;;
58581;SDS011;44361;51.476;5.700;2022-08-05T02:37:44;21.83;;;11.65;;
58581;SDS011;44361;51.476;5.700;2022-08-05T02:40:10;18.27;;;11.05;;
58581;SDS011;44361;51.476;5.700;2022-08-05T02:42:38;22.10;;;11.65;;
58581;SDS011;44361;51.476;5.700;2022-08-05T02:45:04;18.27;;;11.38;;
58581;SDS011;44361;51.476;5.700;2022-08-05T02:47:32;17.02;;;11.02;;
58581;SDS011;44361;51.476;5.700;2022-08-05T02:50:00;16.33;;;10.93;;
58581;SDS011;44361;51.476;5.700;2022-08-05T02:52:26;22.33;;;11.57;;
58581;SDS011;44361;51.476;5.700;2022-08-05T02:54:53;21.38;;;11.88;;
58581;SDS011;44361;51.476;5.700;2022-08-05T02:57:19;24.83;;;11.45;;
58581;SDS011;44361;51.476;5.700;2022-08-05T02:59:47;16.35;;;11.40;;
58581;SDS011;44361;51.476;5.700;2022-08-05T03:02:14;20.02;;;10.77;;
58581;SDS011;44361;51.476;5.700;2022-08-05T03:04:43;22.00;;;11.23;;
58581;SDS011;44361;51.476;5.700;2022-08-05T03:07:10;15.48;;;9.95;;
58581;SDS011;44361;51.476;5.700;2022-08-05T03:09:36;18.33;;;10.90;;
58581;SDS011;44361;51.476;5.700;2022-08-05T03:12:03;18.52;;;10.82;;
58581;SDS011;44361;51.476;5.700;2022-08-05T03:14:30;20.38;;;10.82;;
58581;SDS011;44361;51.476;5.700;2022-08-05T03:16:55;20.88;;;11.20;;
58581;SDS011;44361;51.476;5.700;2022-08-05T03:19:21;24.20;;;11.57;;
58581;SDS011;44361;51.476;5.700;2022-08-05T03:21:46;15.52;;;10.35;;
58581;SDS011;44361;51.476;5.700;2022-08-05T03:24:12;21.63;;;10.40;;
58581;SDS011;44361;51.476;5.700;2022-08-05T03:26:38;22.58;;;10.85;;
58581;SDS011;44361;51.476;5.700;2022-08-05T03:29:03;17.25;;;10.88;;
58581;SDS011;44361;51.476;5.700;2022-08-05T03:31:29;17.48;;;10.50;;
58581;SDS011;44361;51.476;5.700;2022-08-05T03:33:56;18.55;;;10.73;;
58581;SDS011;44361;51.476;5.700;2022-08-05T03:36:22;21.90;;;10.77;;
58581;SDS011;44361;51.476;5.700;2022-08-05T03:38:48;21.17;;;10.13;;
58581;SDS011;44361;51.476;5.700;2022-08-05T03:41:14;19.20;;;10.18;;
58581;SDS011;44361;51.476;5.700;2022-08-05T03:43:40;16.13;;;10.95;;
58581;SDS011;44361;51.476;5.700;2022-08-05T03:46:06;19.13;;;9.93;;
58581;SDS011;44361;51.476;5.700;2022-08-05T03:48:32;14.25;;;10.38;;
58581;SDS011;44361;51.476;5.700;2022-08-05T03:51:09;21.77;;;10.85;;
58581;SDS011;44361;51.476;5.700;2022-08-05T03:53:39;22.33;;;10.70;;
58581;SDS011;44361;51.476;5.700;2022-08-05T03:56:21;19.13;;;11.40;;
58581;SDS011;44361;51.476;5.700;2022-08-05T03:58:52;25.50;;;11.05;;
58581;SDS011;44361;51.476;5.700;2022-08-05T04:01:21;19.63;;;11.15;;
58581;SDS011;44361;51.476;5.700;2022-08-05T04:03:49;15.95;;;11.43;;
58581;SDS011;44361;51.476;5.700;2022-08-05T04:06:16;20.88;;;11.82;;
58581;SDS011;44361;51.476;5.700;2022-08-05T04:08:42;23.25;;;12.63;;
58581;SDS011;44361;51.476;5.700;2022-08-05T04:11:09;28.15;;;12.68;;
58581;SDS011;44361;51.476;5.700;2022-08-05T04:13:39;23.08;;;12.98;;
58581;SDS011;44361;51.476;5.700;2022-08-05T04:16:08;19.08;;;13.10;;
58581;SDS011;44361;51.476;5.700;2022-08-05T04:18:36;25.17;;;12.88;;
58581;SDS011;44361;51.476;5.700;2022-08-05T04:21:03;18.23;;;12.73;;
58581;SDS011;44361;51.476;5.700;2022-08-05T04:23:29;25.23;;;13.55;;
58581;SDS011;44361;51.476;5.700;2022-08-05T04:25:56;24.83;;;12.93;;
58581;SDS011;44361;51.476;5.700;2022-08-05T04:28:22;27.80;;;13.50;;
58581;SDS011;44361;51.476;5.700;2022-08-05T04:30:47;26.33;;;14.02;;
58581;SDS011;44361;51.476;5.700;2022-08-05T04:33:13;23.77;;;13.68;;
58581;SDS011;44361;51.476;5.700;2022-08-05T04:35:40;30.95;;;14.50;;
58581;SDS011;44361;51.476;5.700;2022-08-05T04:38:06;33.67;;;14.40;;
58581;SDS011;44361;51.476;5.700;2022-08-05T04:40:33;25.95;;;14.07;;
58581;SDS011;44361;51.476;5.700;2022-08-05T04:42:59;24.63;;;14.60;;
58581;SDS011;44361;51.476;5.700;2022-08-05T04:45:25;25.10;;;13.77;;
58581;SDS011;44361;51.476;5.700;2022-08-05T04:47:51;26.13;;;15.30;;
58581;SDS011;44361;51.476;5.700;2022-08-05T04:50:16;31.33;;;14.70;;
58581;SDS011;44361;51.476;5.700;2022-08-05T04:52:43;30.88;;;14.32;;
58581;SDS011;44361;51.476;5.700;2022-08-05T04:55:09;28.08;;;13.43;;
58581;SDS011;44361;51.476;5.700;2022-08-05T04:57:35;27.73;;;14.13;;
58581;SDS011;44361;51.476;5.700;2022-08-05T05:00:02;19.42;;;12.68;;
58581;SDS011;44361;51.476;5.700;2022-08-05T05:02:31;20.38;;;12.70;;
58581;SDS011;44361;51.476;5.700;2022-08-05T05:04:56;23.55;;;12.15;;
58581;SDS011;44361;51.476;5.700;2022-08-05T05:07:22;24.52;;;11.80;;
58581;SDS011;44361;51.476;5.700;2022-08-05T05:09:47;24.92;;;12.00;;
58581;SDS011;44361;51.476;5.700;2022-08-05T05:12:13;19.75;;;11.45;;
58581;SDS011;44361;51.476;5.700;2022-08-05T05:14:38;24.17;;;10.73;;
58581;SDS011;44361;51.476;5.700;2022-08-05T05:17:04;18.67;;;9.68;;
58581;SDS011;44361;51.476;5.700;2022-08-05T05:19:30;17.40;;;11.27;;
58581;SDS011;44361;51.476;5.700;2022-08-05T05:21:55;22.00;;;10.23;;
58581;SDS011;44361;51.476;5.700;2022-08-05T05:24:21;20.55;;;10.02;;
58581;SDS011;44361;51.476;5.700;2022-08-05T05:26:47;17.50;;;9.63;;
58581;SDS011;44361;51.476;5.700;2022-08-05T05:29:12;16.40;;;9.68;;
58581;SDS011;44361;51.476;5.700;2022-08-05T05:31:38;18.67;;;9.07;;
58581;SDS011;44361;51.476;5.700;2022-08-05T05:34:03;16.23;;;8.82;;
58581;SDS011;44361;51.476;5.700;2022-08-05T05:36:30;18.30;;;9.38;;
58581;SDS011;44361;51.476;5.700;2022-08-05T05:38:56;15.35;;;9.32;;
58581;SDS011;44361;51.476;5.700;2022-08-05T05:41:21;19.65;;;9.93;;
58581;SDS011;44361;51.476;5.700;2022-08-05T05:43:47;17.40;;;9.38;;
58581;SDS011;44361;51.476;5.700;2022-08-05T05:46:13;15.82;;;8.98;;
58581;SDS011;44361;51.476;5.700;2022-08-05T05:48:38;14.40;;;8.45;;
58581;SDS011;44361;51.476;5.700;2022-08-05T05:51:05;17.88;;;8.98;;
58581;SDS011;44361;51.476;5.700;2022-08-05T05:53:32;13.93;;;8.98;;
58581;SDS011;44361;51.476;5.700;2022-08-05T05:55:57;17.73;;;9.48;;
58581;SDS011;44361;51.476;5.700;2022-08-05T05:58:23;16.52;;;9.80;;
58581;SDS011;44361;51.476;5.700;2022-08-05T06:00:48;17.83;;;8.98;;
58581;SDS011;44361;51.476;5.700;2022-08-05T06:03:14;17.73;;;9.55;;
58581;SDS011;44361;51.476;5.700;2022-08-05T06:05:39;18.50;;;9.68;;
58581;SDS011;44361;51.476;5.700;2022-08-05T06:08:05;23.13;;;10.13;;
58581;SDS011;44361;51.476;5.700;2022-08-05T06:10:31;17.77;;;10.05;;
58581;SDS011;44361;51.476;5.700;2022-08-05T06:12:57;14.88;;;8.77;;
58581;SDS011;44361;51.476;5.700;2022-08-05T06:15:23;17.85;;;9.80;;
58581;SDS011;44361;51.476;5.700;2022-08-05T06:17:49;15.50;;;9.45;;
58581;SDS011;44361;51.476;5.700;2022-08-05T06:20:15;16.27;;;9.40;;
58581;SDS011;44361;51.476;5.700;2022-08-05T06:22:40;17.27;;;9.93;;
58581;SDS011;44361;51.476;5.700;2022-08-05T06:25:06;20.05;;;9.60;;
58581;SDS011;44361;51.476;5.700;2022-08-05T06:27:33;18.88;;;10.05;;
58581;SDS011;44361;51.476;5.700;2022-08-05T06:29:59;18.00;;;9.48;;
58581;SDS011;44361;51.476;5.700;2022-08-05T06:32:24;14.65;;;8.45;;
58581;SDS011;44361;51.476;5.700;2022-08-05T06:34:50;19.33;;;9.35;;
58581;SDS011;44361;51.476;5.700;2022-08-05T06:37:15;20.50;;;8.98;;
58581;SDS011;44361;51.476;5.700;2022-08-05T06:39:41;17.08;;;9.13;;
58581;SDS011;44361;51.476;5.700;2022-08-05T06:42:07;17.45;;;8.98;;
58581;SDS011;44361;51.476;5.700;2022-08-05T06:44:32;16.80;;;8.77;;
58581;SDS011;44361;51.476;5.700;2022-08-05T06:46:58;15.52;;;8.93;;
58581;SDS011;44361;51.476;5.700;2022-08-05T06:49:24;14.95;;;8.23;;
58581;SDS011;44361;51.476;5.700;2022-08-05T06:51:50;14.65;;;8.80;;
58581;SDS011;44361;51.476;5.700;2022-08-05T06:54:16;18.63;;;9.00;;
58581;SDS011;44361;51.476;5.700;2022-08-05T06:56:42;16.40;;;9.20;;
58581;SDS011;44361;51.476;5.700;2022-08-05T06:59:07;15.73;;;9.45;;
58581;SDS011;44361;51.476;5.700;2022-08-05T07:01:33;17.02;;;9.90;;
58581;SDS011;44361;51.476;5.700;2022-08-05T07:03:59;21.15;;;9.85;;
58581;SDS011;44361;51.476;5.700;2022-08-05T07:06:25;15.43;;;10.40;;
58581;SDS011;44361;51.476;5.700;2022-08-05T07:08:51;13.95;;;9.48;;
58581;SDS011;44361;51.476;5.700;2022-08-05T07:11:17;19.70;;;9.77;;
58581;SDS011;44361;51.476;5.700;2022-08-05T07:13:42;16.52;;;10.70;;
58581;SDS011;44361;51.476;5.700;2022-08-05T07:16:27;16.20;;;10.20;;
58581;SDS011;44361;51.476;5.700;2022-08-05T07:19:11;11.98;;;8.65;;
58581;SDS011;44361;51.476;5.700;2022-08-05T07:21:37;14.85;;;9.45;;
58581;SDS011;44361;51.476;5.700;2022-08-05T07:24:03;17.33;;;9.18;;
58581;SDS011;44361;51.476;5.700;2022-08-05T07:26:29;13.52;;;7.72;;
58581;SDS011;44361;51.476;5.700;2022-08-05T07:28:54;12.45;;;7.68;;
58581;SDS011;44361;51.476;5.700;2022-08-05T07:31:20;13.43;;;7.55;;
58581;SDS011;44361;51.476;5.700;2022-08-05T07:33:46;13.50;;;7.85;;
58581;SDS011;44361;51.476;5.700;2022-08-05T07:36:11;15.60;;;7.63;;
58581;SDS011;44361;51.476;5.700;2022-08-05T07:38:38;10.57;;;7.38;;
58581;SDS011;44361;51.476;5.700;2022-08-05T07:41:05;12.35;;;7.43;;
58581;SDS011;44361;51.476;5.700;2022-08-05T07:43:33;15.30;;;8.07;;
58581;SDS011;44361;51.476;5.700;2022-08-05T07:45:58;14.38;;;9.00;;
58581;SDS011;44361;51.476;5.700;2022-08-05T07:48:24;15.50;;;9.13;;
58581;SDS011;44361;51.476;5.700;2022-08-05T07:50:49;13.50;;;8.98;;
58581;SDS011;44361;51.476;5.700;2022-08-05T07:53:15;11.55;;;7.50;;
58581;SDS011;44361;51.476;5.700;2022-08-05T07:55:40;14.35;;;8.20;;
58581;SDS011;44361;51.476;5.700;2022-08-05T07:58:06;11.63;;;7.88;;
58581;SDS011;44361;51.476;5.700;2022-08-05T08:00:32;12.60;;;7.32;;
58581;SDS011;44361;51.476;5.700;2022-08-05T08:02:57;12.38;;;7.60;;
58581;SDS011;44361;51.476;5.700;2022-08-05T08:05:23;15.20;;;7.65;;
58581;SDS011;44361;51.476;5.700;2022-08-05T08:07:50;14.13;;;8.05;;
58581;SDS011;44361;51.476;5.700;2022-08-05T08:10:16;10.88;;;6.95;;
58581;SDS011;44361;51.476;5.700;2022-08-05T08:12:42;11.85;;;6.97;;
58581;SDS011;44361;51.476;5.700;2022-08-05T08:15:08;14.45;;;7.70;;
58581;SDS011;44361;51.476;5.700;2022-08-05T08:17:34;9.35;;;7.10;;
58581;SDS011;44361;51.476;5.700;2022-08-05T08:20:00;11.13;;;7.07;;
58581;SDS011;44361;51.476;5.700;2022-08-05T08:22:28;17.05;;;6.80;;
58581;SDS011;44361;51.476;5.700;2022-08-05T08:24:54;14.48;;;6.82;;
58581;SDS011;44361;51.476;5.700;2022-08-05T08:27:19;12.10;;;6.38;;
58581;SDS011;44361;51.476;5.700;2022-08-05T08:29:45;10.48;;;5.78;;
58581;SDS011;44361;51.476;5.700;2022-08-05T08:32:11;10.90;;;5.32;;
58581;SDS011;44361;51.476;5.700;2022-08-05T08:34:36;8.00;;;3.85;;
58581;SDS011;44361;51.476;5.700;2022-08-05T08:37:02;9.35;;;3.88;;
58581;SDS011;44361;51.476;5.700;2022-08-05T08:39:27;10.02;;;3.40;;
58581;SDS011;44361;51.476;5.700;2022-08-05T08:41:53;9.45;;;3.60;;
58581;SDS011;44361;51.476;5.700;2022-08-05T08:44:20;5.78;;;2.92;;
58581;SDS011;44361;51.476;5.700;2022-08-05T08:46:48;7.00;;;2.63;;
58581;SDS011;44361;51.476;5.700;2022-08-05T08:49:14;6.65;;;2.80;;
58581;SDS011;44361;51.476;5.700;2022-08-05T08:51:46;4.25;;;2.00;;
58581;SDS011;44361;51.476;5.700;2022-08-05T08:54:13;6.10;;;2.00;;
58581;SDS011;44361;51.476;5.700;2022-08-05T08:56:39;6.13;;;1.67;;
58581;SDS011;44361;51.476;5.700;2022-08-05T08:59:04;4.72;;;2.00;;
58581;SDS011;44361;51.476;5.700;2022-08-05T09:01:31;2.22;;;1.30;;
58581;SDS011;44361;51.476;5.700;2022-08-05T09:03:57;8.50;;;2.40;;
58581;SDS011;44361;51.476;5.700;2022-08-05T09:06:24;4.28;;;1.77;;
58581;SDS011;44361;51.476;5.700;2022-08-05T09:08:52;6.95;;;2.50;;
58581;SDS011;44361;51.476;5.700;2022-08-05T09:11:17;4.28;;;1.70;;
58581;SDS011;44361;51.476;5.700;2022-08-05T09:13:43;9.15;;;1.98;;
58581;SDS011;44361;51.476;5.700;2022-08-05T09:16:09;6.10;;;2.15;;
58581;SDS011;44361;51.476;5.700;2022-08-05T09:18:36;3.63;;;2.22;;
58581;SDS011;44361;51.476;5.700;2022-08-05T09:21:02;4.82;;;2.42;;
58581;SDS011;44361;51.476;5.700;2022-08-05T09:23:28;4.55;;;1.90;;
58581;SDS011;44361;51.476;5.700;2022-08-05T09:26:13;3.17;;;1.25;;
58581;SDS011;44361;51.476;5.700;2022-08-05T09:28:45;4.32;;;1.30;;
58581;SDS011;44361;51.476;5.700;2022-08-05T09:31:12;3.65;;;1.50;;
58581;SDS011;44361;51.476;5.700;2022-08-05T09:33:47;3.03;;;1.52;;
58581;SDS011;44361;51.476;5.700;2022-08-05T09:38:53;3.40;;;1.50;;
58581;SDS011;44361;51.476;5.700;2022-08-05T09:41:23;3.20;;;1.23;;
58581;SDS011;44361;51.476;5.700;2022-08-05T09:43:49;4.03;;;1.23;;
58581;SDS011;44361;51.476;5.700;2022-08-05T09:46:22;2.75;;;1.25;;
58581;SDS011;44361;51.476;5.700;2022-08-05T09:48:53;3.20;;;1.63;;
58581;SDS011;44361;51.476;5.700;2022-08-05T09:51:33;5.88;;;1.73;;
58581;SDS011;44361;51.476;5.700;2022-08-05T09:54:01;5.05;;;1.23;;
58581;SDS011;44361;51.476;5.700;2022-08-05T09:56:31;5.82;;;1.30;;
58581;SDS011;44361;51.476;5.700;2022-08-05T09:59:07;3.35;;;1.17;;
58581;SDS011;44361;51.476;5.700;2022-08-05T10:01:36;3.55;;;1.33;;
58581;SDS011;44361;51.476;5.700;2022-08-05T10:06:38;4.47;;;1.40;;
58581;SDS011;44361;51.476;5.700;2022-08-05T10:09:13;5.45;;;1.60;;
58581;SDS011;44361;51.476;5.700;2022-08-05T10:11:40;3.50;;;1.67;;
58581;SDS011;44361;51.476;5.700;2022-08-05T10:14:20;5.95;;;1.80;;
58581;SDS011;44361;51.476;5.700;2022-08-05T10:16:49;5.03;;;1.60;;
58581;SDS011;44361;51.476;5.700;2022-08-05T10:19:15;7.00;;;1.98;;
58581;SDS011;44361;51.476;5.700;2022-08-05T10:21:41;4.80;;;2.13;;
58581;SDS011;44361;51.476;5.700;2022-08-05T10:24:07;6.22;;;1.80;;
58581;SDS011;44361;51.476;5.700;2022-08-05T10:26:37;3.65;;;1.50;;
58581;SDS011;44361;51.476;5.700;2022-08-05T10:29:06;3.55;;;1.25;;
58581;SDS011;44361;51.476;5.700;2022-08-05T10:31:32;3.95;;;1.20;;
58581;SDS011;44361;51.476;5.700;2022-08-05T10:33:58;4.55;;;1.40;;
58581;SDS011;44361;51.476;5.700;2022-08-05T10:36:23;4.07;;;1.52;;
58581;SDS011;44361;51.476;5.700;2022-08-05T10:38:49;5.85;;;1.33;;
58581;SDS011;44361;51.476;5.700;2022-08-05T10:44:02;3.85;;;1.58;;
58581;SDS011;44361;51.476;5.700;2022-08-05T10:46:43;2.88;;;1.27;;
58581;SDS011;44361;51.476;5.700;2022-08-05T10:49:14;4.63;;;1.75;;
58581;SDS011;44361;51.476;5.700;2022-08-05T10:51:43;3.72;;;1.65;;
58581;SDS011;44361;51.476;5.700;2022-08-05T10:54:11;3.97;;;1.50;;
58581;SDS011;44361;51.476;5.700;2022-08-05T10:56:47;2.75;;;1.20;;
58581;SDS011;44361;51.476;5.700;2022-08-05T10:59:15;3.53;;;0.95;;
58581;SDS011;44361;51.476;5.700;2022-08-05T11:02:07;4.18;;;1.52;;
58581;SDS011;44361;51.476;5.700;2022-08-05T11:04:42;1.75;;;1.15;;
58581;SDS011;44361;51.476;5.700;2022-08-05T11:07:12;2.95;;;1.17;;
58581;SDS011;44361;51.476;5.700;2022-08-05T11:09:48;4.90;;;1.40;;
58581;SDS011;44361;51.476;5.700;2022-08-05T11:15:07;3.33;;;0.82;;
58581;SDS011;44361;51.476;5.700;2022-08-05T11:17:34;2.30;;;0.90;;
58581;SDS011;44361;51.476;5.700;2022-08-05T11:20:03;2.20;;;0.85;;
58581;SDS011;44361;51.476;5.700;2022-08-05T11:22:43;1.70;;;0.90;;
58581;SDS011;44361;51.476;5.700;2022-08-05T11:25:25;2.92;;;0.68;;
58581;SDS011;44361;51.476;5.700;2022-08-05T11:27:55;1.85;;;0.82;;
58581;SDS011;44361;51.476;5.700;2022-08-05T11:30:21;0.82;;;0.40;;
58581;SDS011;44361;51.476;5.700;2022-08-05T11:32:47;1.17;;;0.70;;
58581;SDS011;44361;51.476;5.700;2022-08-05T11:38:15;0.80;;;0.57;;
58581;SDS011;44361;51.476;5.700;2022-08-05T11:41:00;1.20;;;0.50;;
58581;SDS011;44361;51.476;5.700;2022-08-05T11:43:28;3.28;;;1.17;;
58581;SDS011;44361;51.476;5.700;2022-08-05T11:45:54;2.35;;;0.40;;
58581;SDS011;44361;51.476;5.700;2022-08-05T11:48:20;4.50;;;0.60;;
58581;SDS011;44361;51.476;5.700;2022-08-05T11:50:46;1.88;;;0.55;;
58581;SDS011;44361;51.476;5.700;2022-08-05T11:53:13;1.33;;;0.40;;
58581;SDS011;44361;51.476;5.700;2022-08-05T11:55:56;1.15;;;0.30;;
58581;SDS011;44361;51.476;5.700;2022-08-05T11:58:23;2.75;;;0.32;;
58581;SDS011;44361;51.476;5.700;2022-08-05T12:01:01;1.08;;;0.50;;
58581;SDS011;44361;51.476;5.700;2022-08-05T12:03:39;0.90;;;0.50;;
58581;SDS011;44361;51.476;5.700;2022-08-05T12:08:31;0.20;;;0.20;;
58581;SDS011;44361;51.476;5.700;2022-08-05T12:10:57;3.22;;;0.82;;
58581;SDS011;44361;51.476;5.700;2022-08-05T12:13:24;1.70;;;0.40;;
58581;SDS011;44361;51.476;5.700;2022-08-05T12:15:50;0.98;;;0.50;;
58581;SDS011;44361;51.476;5.700;2022-08-05T12:18:26;4.97;;;0.80;;
58581;SDS011;44361;51.476;5.700;2022-08-05T12:20:54;1.70;;;0.50;;
58581;SDS011;44361;51.476;5.700;2022-08-05T12:23:19;0.93;;;0.40;;
58581;SDS011;44361;51.476;5.700;2022-08-05T12:25:51;0.73;;;0.32;;
58581;SDS011;44361;51.476;5.700;2022-08-05T12:28:34;0.70;;;0.38;;
58581;SDS011;44361;51.476;5.700;2022-08-05T12:31:01;5.78;;;0.38;;
58581;SDS011;44361;51.476;5.700;2022-08-05T12:33:27;1.55;;;0.50;;
58581;SDS011;44361;51.476;5.700;2022-08-05T12:35:54;2.65;;;0.38;;
58581;SDS011;44361;51.476;5.700;2022-08-05T12:38:20;1.42;;;0.20;;
58581;SDS011;44361;51.476;5.700;2022-08-05T12:40:47;1.00;;;0.30;;
58581;SDS011;44361;51.476;5.700;2022-08-05T12:43:13;0.38;;;0.30;;
58581;SDS011;44361;51.476;5.700;2022-08-05T12:45:52;3.92;;;0.50;;
58581;SDS011;44361;51.476;5.700;2022-08-05T12:48:19;1.20;;;0.50;;
58581;SDS011;44361;51.476;5.700;2022-08-05T12:53:44;5.80;;;0.60;;
58581;SDS011;44361;51.476;5.700;2022-08-05T13:01:37;2.20;;;0.40;;
58581;SDS011;44361;51.476;5.700;2022-08-05T13:04:03;6.60;;;0.50;;
58581;SDS011;44361;51.476;5.700;2022-08-05T13:06:29;2.58;;;0.50;;
58581;SDS011;44361;51.476;5.700;2022-08-05T13:08:55;2.08;;;0.60;;
58581;SDS011;44361;51.476;5.700;2022-08-05T13:11:27;2.15;;;0.50;;
58581;SDS011;44361;51.476;5.700;2022-08-05T13:13:56;2.92;;;0.50;;
58581;SDS011;44361;51.476;5.700;2022-08-05T13:16:22;1.60;;;0.50;;
58581;SDS011;44361;51.476;5.700;2022-08-05T13:18:52;3.25;;;0.68;;
58581;SDS011;44361;51.476;5.700;2022-08-05T13:21:18;1.65;;;0.65;;
58581;SDS011;44361;51.476;5.700;2022-08-05T13:23:44;4.20;;;0.70;;
58581;SDS011;44361;51.476;5.700;2022-08-05T13:26:10;1.48;;;0.50;;
58581;SDS011;44361;51.476;5.700;2022-08-05T13:28:35;0.85;;;0.60;;
58581;SDS011;44361;51.476;5.700;2022-08-05T13:31:01;2.67;;;0.65;;
58581;SDS011;44361;51.476;5.700;2022-08-05T13:33:26;5.57;;;0.60;;
58581;SDS011;44361;51.476;5.700;2022-08-05T13:35:52;0.95;;;0.60;;
58581;SDS011;44361;51.476;5.700;2022-08-05T13:38:18;3.95;;;0.50;;
58581;SDS011;44361;51.476;5.700;2022-08-05T13:40:44;2.20;;;0.60;;
58581;SDS011;44361;51.476;5.700;2022-08-05T13:43:10;1.02;;;0.38;;
58581;SDS011;44361;51.476;5.700;2022-08-05T13:45:36;2.30;;;0.63;;
58581;SDS011;44361;51.476;5.700;2022-08-05T13:48:01;2.22;;;0.40;;
58581;SDS011;44361;51.476;5.700;2022-08-05T13:50:27;1.27;;;0.40;;
58581;SDS011;44361;51.476;5.700;2022-08-05T13:52:52;1.55;;;0.40;;
58581;SDS011;44361;51.476;5.700;2022-08-05T13:55:18;2.72;;;0.30;;
58581;SDS011;44361;51.476;5.700;2022-08-05T13:57:44;2.88;;;0.40;;
58581;SDS011;44361;51.476;5.700;2022-08-05T14:00:09;1.08;;;0.40;;
58581;SDS011;44361;51.476;5.700;2022-08-05T14:02:35;0.95;;;0.20;;
58581;SDS011;44361;51.476;5.700;2022-08-05T14:05:01;2.10;;;0.40;;
58581;SDS011;44361;51.476;5.700;2022-08-05T14:07:36;4.75;;;0.60;;
58581;SDS011;44361;51.476;5.700;2022-08-05T14:10:04;0.40;;;0.30;;
58581;SDS011;44361;51.476;5.700;2022-08-05T14:12:31;0.88;;;0.35;;
58581;SDS011;44361;51.476;5.700;2022-08-05T14:14:57;1.42;;;0.43;;
58581;SDS011;44361;51.476;5.700;2022-08-05T14:17:22;0.95;;;0.30;;
58581;SDS011;44361;51.476;5.700;2022-08-05T14:19:50;1.83;;;0.30;;
58581;SDS011;44361;51.476;5.700;2022-08-05T14:22:16;1.30;;;0.40;;
58581;SDS011;44361;51.476;5.700;2022-08-05T14:24:42;1.65;;;0.40;;
58581;SDS011;44361;51.476;5.700;2022-08-05T14:27:07;1.10;;;0.30;;
58581;SDS011;44361;51.476;5.700;2022-08-05T14:29:33;1.65;;;0.32;;
58581;SDS011;44361;51.476;5.700;2022-08-05T14:31:59;0.40;;;0.20;;
58581;SDS011;44361;51.476;5.700;2022-08-05T14:34:24;1.30;;;0.30;;
58581;SDS011;44361;51.476;5.700;2022-08-05T14:36:50;0.65;;;0.25;;
58581;SDS011;44361;51.476;5.700;2022-08-05T14:39:16;0.95;;;0.30;;
58581;SDS011;44361;51.476;5.700;2022-08-05T14:41:41;1.00;;;0.30;;
58581;SDS011;44361;51.476;5.700;2022-08-05T14:44:07;3.42;;;0.40;;
58581;SDS011;44361;51.476;5.700;2022-08-05T14:46:32;0.82;;;0.30;;
58581;SDS011;44361;51.476;5.700;2022-08-05T14:48:58;1.02;;;0.20;;
58581;SDS011;44361;51.476;5.700;2022-08-05T14:51:25;2.15;;;0.70;;
58581;SDS011;44361;51.476;5.700;2022-08-05T14:53:51;3.30;;;0.20;;
58581;SDS011;44361;51.476;5.700;2022-08-05T14:56:16;5.18;;;0.20;;
58581;SDS011;44361;51.476;5.700;2022-08-05T14:58:42;0.95;;;0.30;;
58581;SDS011;44361;51.476;5.700;2022-08-05T15:01:07;0.73;;;0.20;;
58581;SDS011;44361;51.476;5.700;2022-08-05T15:03:33;1.08;;;0.50;;
58581;SDS011;44361;51.476;5.700;2022-08-05T15:05:59;2.90;;;0.43;;
58581;SDS011;44361;51.476;5.700;2022-08-05T15:08:24;1.75;;;0.30;;
58581;SDS011;44361;51.476;5.700;2022-08-05T15:10:50;1.75;;;0.40;;
58581;SDS011;44361;51.476;5.700;2022-08-05T15:13:16;0.40;;;0.40;;